Rossville, IL (60963)

5:14 PM CDT on September 27, 2016 (GMT -0500)
Weinard Farms | | Change Station

Elev 692 ft 40.39 °N, 87.57 °W | Updated 6 seconds ago

Clear
Clear
74.5 °F
Feels Like 76 °F
N
13.0
Wind Variable Wind from WNW
Gusts 19.0 mph

Today
High -- | Low -- °F
--% Chance of Precip.
Yesterday
High -- | Low -- °F
Precip. -- in
Pressure 29.77 in
Visibility 7.0 miles
Clouds Clear
Heat Index 76 °F
Dew Point 37 °F
Humidity 26%
Rainfall 0.00 in
Snow Depth Not available.
6:43 AM 6:38 PM
Waning Crescent, 9% visible
METAR KDNV 272155Z AUTO 25013G19KT 7SM CLR 23/02 A2977 RMK AO2 T02310024
Pressure 29.77 in
Visibility 7.0 miles
Clouds Clear
Heat Index 76 °F
Dew Point 37 °F
Humidity 26%
Rainfall 0.00 in
Snow Depth Not available.
6:43 AM 6:38 PM
Waning Crescent, 9% visible
METAR KDNV 272155Z AUTO 25013G19KT 7SM CLR 23/02 A2977 RMK AO2 T02310024

10-Day Weather Forecast

Almanac

Astronomy

Sep. 27, 2016 Rise Set
Actual Time
Civil Twilight
Nautical Twilight
Astronomical Twilight
Moon
Length of Visible Light
Length of Day
Tomorrow will be .
, % of the Moon is Illuminated

Today's Extremes

State Highs State Lows

Community

WunderPhotos

Upload Photos

1,942,168 photos uploaded!

WunderBlog® & News

Nearby

Air Quality

  Air Quality AQ Index Pollutant
Not available.

Snow Depth

Station Depth Elevation

Earthquake Activity

City Distance Mag. Time & Date
Minimum magnitude displayed is 2.5.

Coastal Water Temperatures

Place Temperature

Stations

Nearby Weather Stations

Station Location Temp. Windchill Dew Point Humidity Wind Precip. Elev Updated Type
                   

Watches & Warnings

There are currently no watches in effect.